createdAt,value
2023-05-05T00:00:33.265Z,101084.53
2023-05-05T00:05:49.809Z,101085.70
2023-05-05T00:10:53.947Z,101089.86
2023-05-05T00:15:56.802Z,101092.64
2023-05-05T00:20:59.735Z,101095.65
2023-05-05T00:26:02.602Z,101097.61
2023-05-05T00:31:05.520Z,101091.73
2023-05-05T00:36:09.410Z,101089.90
2023-05-05T00:41:12.324Z,101091.57
2023-05-05T00:46:26.546Z,101090.42
2023-05-05T00:51:29.841Z,101084.83
2023-05-05T00:56:33.259Z,101082.52
2023-05-05T01:01:36.389Z,101074.27
2023-05-05T01:07:01.121Z,101076.10
2023-05-05T01:12:03.879Z,101074.79
2023-05-05T01:17:36.506Z,101077.29
2023-05-05T01:22:57.428Z,101070.68
2023-05-05T01:28:31.523Z,101071.93
2023-05-05T01:33:59.959Z,101071.11
2023-05-05T01:39:04.675Z,101071.28
2023-05-05T01:44:09.635Z,101068.02
2023-05-05T01:49:13.606Z,101067.02
2023-05-05T01:54:17.743Z,101068.45
2023-05-05T01:59:21.847Z,101063.59
2023-05-05T02:04:27.591Z,101064.33
2023-05-05T02:09:31.640Z,101065.27
2023-05-05T02:14:36.108Z,101059.36
2023-05-05T02:19:43.120Z,101068.66
2023-05-05T02:24:46.197Z,101069.42
2023-05-05T02:29:52.942Z,101067.73
2023-05-05T02:34:58.990Z,101064.33
2023-05-05T02:40:05.536Z,101069.28
2023-05-05T02:45:14.123Z,101074.94
2023-05-05T02:50:17.203Z,101075.38
2023-05-05T02:55:20.452Z,101076.63
2023-05-05T03:00:28.260Z,101087.63
2023-05-05T03:05:44.023Z,101089.25
2023-05-05T03:11:08.124Z,101085.63
2023-05-05T03:16:13.284Z,101088.97
2023-05-05T03:21:16.600Z,101095.62
2023-05-05T03:26:19.318Z,101103.45
2023-05-05T03:31:22.224Z,101105.73
2023-05-05T03:36:26.184Z,101107.84
2023-05-05T03:41:30.829Z,101111.86
2023-05-05T03:46:33.642Z,101116.00
2023-05-05T03:51:37.008Z,101123.94
2023-05-05T03:56:40.462Z,101121.96
2023-05-05T04:01:45.165Z,101131.36
2023-05-05T04:06:48.033Z,101133.08
2023-05-05T04:11:51.275Z,101140.00
2023-05-05T04:16:54.013Z,101148.87
2023-05-05T04:21:56.797Z,101149.19
2023-05-05T04:26:59.730Z,101153.35
2023-05-05T04:32:02.605Z,101159.59
2023-05-05T04:37:05.489Z,101159.23
2023-05-05T04:42:09.100Z,101158.34
2023-05-05T04:47:13.972Z,101165.21
2023-05-05T04:52:17.452Z,101167.95
2023-05-05T04:57:20.352Z,101173.43
2023-05-05T05:02:23.297Z,101174.67
2023-05-05T05:07:26.577Z,101179.45
2023-05-05T05:12:29.349Z,101188.41
2023-05-05T05:17:32.220Z,101194.39
2023-05-05T05:22:38.323Z,101204.61
2023-05-05T05:27:41.887Z,101204.13
2023-05-05T05:32:45.034Z,101207.75
2023-05-05T05:37:48.239Z,101208.35
2023-05-05T05:42:51.054Z,101214.08
2023-05-05T05:47:53.962Z,101215.73
2023-05-05T05:52:56.922Z,101217.46
2023-05-05T05:57:59.778Z,101224.16
2023-05-05T06:03:04.892Z,101223.46
2023-05-05T06:08:08.109Z,101228.05
2023-05-05T06:13:11.839Z,101232.20
2023-05-05T06:18:18.480Z,101239.52
2023-05-05T06:23:22.256Z,101240.56
2023-05-05T06:28:25.491Z,101247.56
2023-05-05T06:33:28.760Z,101245.21
2023-05-05T06:38:31.514Z,101243.71
2023-05-05T06:43:34.930Z,101246.46
2023-05-05T06:48:37.801Z,101245.27
2023-05-05T06:53:40.674Z,101248.23
2023-05-05T06:58:43.476Z,101248.63
2023-05-05T07:03:46.428Z,101251.54
2023-05-05T07:08:49.523Z,101255.48
2023-05-05T07:13:53.312Z,101253.90
2023-05-05T07:18:57.101Z,101249.74
2023-05-05T07:24:02.245Z,101249.61
2023-05-05T07:29:11.515Z,101251.88
2023-05-05T07:34:17.582Z,101254.70
2023-05-05T07:39:22.052Z,101254.41
2023-05-05T07:44:25.112Z,101257.09
2023-05-05T07:49:28.096Z,101259.88
2023-05-05T07:54:31.504Z,101260.96
2023-05-05T07:59:35.117Z,101265.27
2023-05-05T08:04:40.291Z,101266.70
2023-05-05T08:09:45.579Z,101268.56
2023-05-05T08:14:48.284Z,101268.74
2023-05-05T08:19:54.792Z,101265.13
2023-05-05T08:24:57.573Z,101269.05
2023-05-05T08:30:00.446Z,101269.44
2023-05-05T08:35:03.615Z,101269.79
2023-05-05T08:40:07.448Z,101274.46
2023-05-05T08:45:13.513Z,101273.21
2023-05-05T08:50:17.487Z,101273.84
2023-05-05T08:55:20.243Z,101276.41
2023-05-05T09:00:23.747Z,101280.38
2023-05-05T09:05:27.406Z,101280.48
2023-05-05T09:10:31.164Z,101275.41
2023-05-05T09:15:34.138Z,101284.83
2023-05-05T09:20:37.727Z,101289.02
2023-05-05T09:25:43.946Z,101292.61
2023-05-05T09:30:47.413Z,101290.38
2023-05-05T09:35:50.309Z,101289.19
2023-05-05T09:40:54.158Z,101290.76
2023-05-05T09:46:15.196Z,101291.00
2023-05-05T09:51:29.806Z,101295.98
2023-05-05T09:56:40.448Z,101290.14
2023-05-05T10:01:44.003Z,101289.15
2023-05-05T10:06:49.956Z,101288.86
2023-05-05T10:11:53.944Z,101288.30
2023-05-05T10:17:00.977Z,101289.48
2023-05-05T10:22:08.478Z,101288.66
2023-05-05T10:27:20.034Z,101293.55
2023-05-05T10:37:39.430Z,101291.02
2023-05-05T10:42:42.275Z,101286.96
2023-05-05T10:47:45.123Z,101286.80
2023-05-05T10:52:58.890Z,101282.97
2023-05-05T10:58:01.885Z,101281.89
2023-05-05T11:03:20.700Z,101274.98
2023-05-05T11:08:27.248Z,101273.13
2023-05-05T11:13:30.629Z,101271.00
2023-05-05T11:18:36.563Z,101272.20
2023-05-05T11:23:39.418Z,101265.27
2023-05-05T11:28:54.859Z,101261.35
2023-05-05T11:34:28.930Z,101259.36
2023-05-05T11:39:54.658Z,101257.98
2023-05-05T11:44:57.905Z,101250.69
2023-05-05T11:50:16.551Z,101246.09
2023-05-05T11:55:22.116Z,101247.20
2023-05-05T12:00:34.257Z,101250.60
2023-05-05T12:05:37.218Z,101248.19
2023-05-05T12:10:40.144Z,101241.80
2023-05-05T12:15:42.942Z,101243.57
2023-05-05T12:20:45.664Z,101244.69
2023-05-05T12:25:49.803Z,101242.73
2023-05-05T12:30:57.822Z,101243.02
2023-05-05T12:36:01.073Z,101239.10
2023-05-05T12:41:04.722Z,101238.15
2023-05-05T12:46:14.398Z,101231.84
2023-05-05T12:51:17.369Z,101232.56
2023-05-05T12:56:49.432Z,101230.17
2023-05-05T13:01:54.076Z,101236.96
2023-05-05T13:07:15.238Z,101231.09
2023-05-05T13:12:18.887Z,101225.87
2023-05-05T13:17:21.758Z,101225.00
2023-05-05T13:22:24.628Z,101217.91
2023-05-05T13:27:27.659Z,101214.59
2023-05-05T13:32:30.563Z,101215.75
2023-05-05T13:37:33.398Z,101207.52
2023-05-05T13:42:36.205Z,101205.77
2023-05-05T13:47:39.113Z,101209.92
2023-05-05T13:52:42.089Z,101204.89
2023-05-05T13:57:44.919Z,101199.76
2023-05-05T14:02:50.909Z,101193.77
2023-05-05T14:07:54.368Z,101196.98
2023-05-05T14:12:57.787Z,101190.47
2023-05-05T14:18:03.520Z,101191.40
2023-05-05T14:23:06.526Z,101184.09
2023-05-05T14:28:09.396Z,101182.98
2023-05-05T14:33:13.892Z,101185.80
2023-05-05T14:38:16.773Z,101191.10
2023-05-05T14:43:19.570Z,101190.86
2023-05-05T14:48:22.750Z,101189.84
2023-05-05T14:53:25.722Z,101189.48
2023-05-05T14:58:28.551Z,101198.04
2023-05-05T15:03:31.788Z,101196.20
2023-05-05T15:08:35.136Z,101191.41
2023-05-05T15:13:41.854Z,101192.19
2023-05-05T15:18:44.676Z,101188.67
2023-05-05T15:23:47.964Z,101192.41
2023-05-05T15:28:52.700Z,101195.09
2023-05-05T15:33:56.162Z,101191.55
2023-05-05T15:38:59.211Z,101191.67
2023-05-05T15:44:03.355Z,101189.61
2023-05-05T15:49:06.179Z,101191.27
2023-05-05T15:54:08.939Z,101188.02
2023-05-05T15:59:11.745Z,101184.39
2023-05-05T16:04:14.767Z,101176.96
2023-05-05T16:09:17.891Z,101178.31
2023-05-05T16:14:20.718Z,101180.84
2023-05-05T16:19:26.648Z,101173.59
2023-05-05T16:24:29.451Z,101173.98
2023-05-05T16:29:32.290Z,101167.34
2023-05-05T16:34:35.144Z,101166.02
2023-05-05T16:39:40.374Z,101166.19
2023-05-05T16:44:43.511Z,101164.94
2023-05-05T16:49:46.613Z,101164.42
2023-05-05T16:54:55.575Z,101165.98
2023-05-05T16:59:58.621Z,101172.17
2023-05-05T17:05:02.498Z,101177.58
2023-05-05T17:10:06.452Z,101179.35
2023-05-05T17:15:09.789Z,101178.61
2023-05-05T17:20:13.178Z,101179.24
2023-05-05T17:25:16.144Z,101186.48
2023-05-05T17:30:19.310Z,101186.44
2023-05-05T17:35:22.190Z,101189.82
2023-05-05T17:40:25.088Z,101192.54
2023-05-05T17:45:28.142Z,101192.29
2023-05-05T17:50:31.007Z,101192.11
2023-05-05T17:55:33.797Z,101198.25
2023-05-05T18:00:36.610Z,101201.40
2023-05-05T18:05:39.492Z,101207.38
2023-05-05T18:10:42.305Z,101212.39
2023-05-05T18:15:45.194Z,101219.21
2023-05-05T18:20:48.407Z,101220.81
2023-05-05T18:25:51.224Z,101227.03
2023-05-05T18:30:54.180Z,101221.27
2023-05-05T18:35:57.941Z,101230.42
2023-05-05T18:41:00.791Z,101235.88
2023-05-05T18:46:03.639Z,101236.94
2023-05-05T18:51:07.537Z,101241.01
2023-05-05T18:56:10.367Z,101247.85
2023-05-05T19:01:13.276Z,101248.38
2023-05-05T19:06:17.391Z,101250.98
2023-05-05T19:11:20.674Z,101255.69
2023-05-05T19:16:24.127Z,101256.70
2023-05-05T19:21:27.818Z,101259.48
2023-05-05T19:26:30.690Z,101256.09
2023-05-05T19:31:33.626Z,101253.95
2023-05-05T19:36:36.684Z,101249.70
2023-05-05T19:41:39.583Z,101249.30
2023-05-05T19:46:42.696Z,101249.23
2023-05-05T19:51:47.708Z,101252.64
2023-05-05T19:56:51.549Z,101252.91
2023-05-05T20:01:54.443Z,101258.05
2023-05-05T20:06:57.402Z,101260.91
2023-05-05T20:12:00.336Z,101261.52
2023-05-05T20:17:03.292Z,101260.18
2023-05-05T20:22:06.240Z,101264.08
2023-05-05T20:27:09.046Z,101261.16
2023-05-05T20:32:11.848Z,101262.94
2023-05-05T20:37:14.713Z,101264.73
2023-05-05T20:42:17.555Z,101269.11
2023-05-05T20:47:20.761Z,101271.93
2023-05-05T20:52:23.595Z,101271.63
2023-05-05T20:57:26.452Z,101271.14
2023-05-05T21:02:29.403Z,101273.23
2023-05-05T21:07:35.588Z,101269.27
2023-05-05T21:12:40.321Z,101267.18
2023-05-05T21:17:43.173Z,101271.01
2023-05-05T21:22:46.087Z,101270.13
2023-05-05T21:27:49.221Z,101273.77
2023-05-05T21:32:52.180Z,101270.46
2023-05-05T21:37:55.031Z,101268.37
2023-05-05T21:42:57.831Z,101266.62
2023-05-05T21:48:01.074Z,101269.02
2023-05-05T21:53:03.876Z,101271.78
2023-05-05T21:58:06.725Z,101273.67
2023-05-05T22:03:09.967Z,101275.90
2023-05-05T22:08:13.035Z,101274.15
2023-05-05T22:13:16.008Z,101272.56
2023-05-05T22:18:18.872Z,101273.05
2023-05-05T22:23:21.709Z,101271.28
2023-05-05T22:28:24.706Z,101270.53
2023-05-05T22:33:28.563Z,101272.21
2023-05-05T22:38:31.402Z,101272.16
2023-05-05T22:43:34.199Z,101269.34
2023-05-05T22:48:37.055Z,101266.33
2023-05-05T22:53:39.899Z,101267.30
2023-05-05T22:58:42.816Z,101261.16
2023-05-05T23:03:45.632Z,101268.36
2023-05-05T23:08:49.425Z,101264.80
2023-05-05T23:13:52.305Z,101265.05
2023-05-05T23:18:55.110Z,101266.88
2023-05-05T23:23:57.966Z,101264.73
2023-05-05T23:29:00.808Z,101262.57
2023-05-05T23:34:03.651Z,101253.48
2023-05-05T23:39:07.386Z,101255.85
2023-05-05T23:44:10.240Z,101254.23
2023-05-05T23:49:13.052Z,101250.02
2023-05-05T23:54:15.939Z,101257.25
2023-05-05T23:59:18.744Z,101257.89
